createdAt,value
2022-09-18T00:01:32.479Z,15.88
2022-09-18T00:04:02.376Z,15.13
2022-09-18T00:06:32.488Z,15.70
2022-09-18T00:09:02.152Z,12.63
2022-09-18T00:11:33.640Z,17.05
2022-09-18T00:14:00.880Z,15.63
2022-09-18T00:16:28.197Z,12.63
2022-09-18T00:18:55.462Z,14.05
2022-09-18T00:21:24.759Z,15.63
2022-09-18T00:23:55.869Z,16.98
2022-09-18T00:26:23.059Z,18.48
2022-09-18T00:28:50.527Z,15.02
2022-09-18T00:31:20.771Z,19.23
2022-09-18T00:33:48.154Z,17.23
2022-09-18T00:36:18.209Z,16.92
2022-09-18T00:38:46.532Z,16.98
2022-09-18T00:41:25.922Z,15.80
2022-09-18T00:44:12.973Z,21.05
2022-09-18T00:46:40.123Z,17.00
2022-09-18T00:49:24.624Z,16.45
2022-09-18T00:51:55.655Z,14.35
2022-09-18T00:54:36.494Z,13.75
2022-09-18T00:57:10.212Z,14.18
2022-09-18T00:59:40.799Z,18.33
2022-09-18T01:02:08.113Z,13.60
2022-09-18T01:04:35.728Z,18.38
2022-09-18T01:07:34.129Z,16.98
2022-09-18T01:10:17.370Z,16.77
2022-09-18T01:12:50.440Z,14.73
2022-09-18T01:17:50.513Z,17.50
2022-09-18T01:20:39.619Z,18.95
2022-09-18T01:23:56.944Z,17.38
2022-09-18T01:26:50.499Z,18.67
2022-09-18T01:29:48.613Z,14.40
2022-09-18T01:32:23.925Z,18.23
2022-09-18T01:35:39.598Z,21.02
2022-09-18T01:38:18.101Z,16.48
2022-09-18T01:40:51.354Z,19.33
2022-09-18T01:43:21.048Z,17.02
2022-09-18T01:45:52.157Z,19.55
2022-09-18T01:48:32.414Z,19.98
2022-09-18T01:51:09.716Z,16.17
2022-09-18T01:53:45.351Z,20.63
2022-09-18T01:56:36.639Z,18.73
2022-09-18T01:59:15.894Z,23.58
2022-09-18T02:01:54.204Z,21.02
2022-09-18T02:04:29.050Z,18.38
2022-09-18T02:07:05.065Z,21.20
2022-09-18T02:09:36.641Z,22.00
2022-09-18T02:12:07.516Z,25.70
2022-09-18T02:14:41.164Z,26.63
2022-09-18T02:17:40.736Z,21.52
2022-09-18T02:20:31.229Z,24.13
2022-09-18T02:23:03.000Z,26.02
2022-09-18T02:25:45.820Z,25.40
2022-09-18T02:30:43.144Z,26.45
2022-09-18T02:33:46.666Z,26.60
2022-09-18T02:36:59.944Z,27.43
2022-09-18T02:40:10.253Z,28.98
2022-09-18T02:43:05.404Z,30.77
2022-09-18T02:45:45.480Z,26.67
2022-09-18T02:48:39.333Z,27.17
2022-09-18T02:51:34.730Z,26.17
2022-09-18T02:54:12.198Z,27.08
2022-09-18T02:56:49.011Z,33.08
2022-09-18T02:59:42.531Z,28.30
2022-09-18T03:02:13.737Z,35.10
2022-09-18T03:04:41.646Z,29.35
2022-09-18T03:07:14.745Z,26.75
2022-09-18T03:09:44.153Z,28.88
2022-09-18T03:12:12.122Z,32.33
2022-09-18T03:14:44.750Z,31.02
2022-09-18T03:17:11.894Z,27.08
2022-09-18T03:19:39.382Z,26.63
2022-09-18T03:22:07.538Z,30.98
2022-09-18T03:24:36.731Z,27.17
2022-09-18T03:27:05.627Z,29.60
2022-09-18T03:29:33.263Z,30.55
2022-09-18T03:32:02.017Z,25.33
2022-09-18T03:34:30.423Z,29.83
2022-09-18T03:36:57.990Z,30.10
2022-09-18T03:39:25.074Z,26.65
2022-09-18T03:41:52.732Z,27.95
2022-09-18T03:44:19.824Z,23.83
2022-09-18T03:46:47.161Z,30.92
2022-09-18T03:49:14.428Z,21.67
2022-09-18T03:51:43.502Z,21.85
2022-09-18T03:54:12.267Z,15.90
2022-09-18T03:56:57.832Z,22.42
2022-09-18T03:59:43.552Z,18.45
2022-09-18T04:02:42.860Z,18.80
2022-09-18T04:05:26.060Z,19.73
2022-09-18T04:08:11.865Z,22.33
2022-09-18T04:10:58.873Z,26.85
2022-09-18T04:13:26.086Z,21.73
2022-09-18T04:15:59.236Z,22.58
2022-09-18T04:18:29.162Z,24.52
2022-09-18T04:20:57.797Z,21.92
2022-09-18T04:23:24.910Z,21.17
2022-09-18T04:25:52.196Z,18.40
2022-09-18T04:28:20.099Z,18.63
2022-09-18T04:30:48.740Z,20.98
2022-09-18T04:33:16.490Z,18.55
2022-09-18T04:35:43.680Z,20.15
2022-09-18T04:38:11.876Z,18.10
2022-09-18T04:40:39.133Z,21.60
2022-09-18T04:43:06.715Z,19.77
2022-09-18T04:45:33.743Z,17.08
2022-09-18T04:48:01.585Z,20.58
2022-09-18T04:50:30.321Z,21.42
2022-09-18T04:53:09.228Z,22.95
2022-09-18T04:55:37.195Z,20.92
2022-09-18T04:58:04.338Z,21.90
2022-09-18T05:00:33.553Z,23.02
2022-09-18T05:03:01.234Z,21.02
2022-09-18T05:05:31.462Z,17.13
2022-09-18T05:08:00.247Z,24.40
2022-09-18T05:10:28.333Z,21.50
2022-09-18T05:12:55.587Z,24.70
2022-09-18T05:15:23.181Z,20.27
2022-09-18T05:17:59.990Z,21.48
2022-09-18T05:20:28.927Z,23.17
2022-09-18T05:23:01.817Z,17.60
2022-09-18T05:25:29.959Z,18.90
2022-09-18T05:28:03.129Z,17.60
2022-09-18T05:30:37.915Z,18.98
2022-09-18T05:33:07.451Z,26.58
2022-09-18T05:35:39.866Z,21.45
2022-09-18T05:38:08.101Z,21.23
2022-09-18T05:40:38.176Z,19.13
2022-09-18T05:43:07.468Z,19.77
2022-09-18T05:45:36.000Z,22.52
2022-09-18T05:48:13.738Z,22.45
2022-09-18T05:50:43.405Z,28.30
2022-09-18T05:53:18.029Z,31.98
2022-09-18T05:56:11.128Z,29.10
2022-09-18T05:58:38.366Z,35.17
2022-09-18T06:01:06.424Z,33.25
2022-09-18T06:03:57.337Z,22.55
2022-09-18T06:06:28.409Z,21.80
2022-09-18T06:08:55.711Z,21.05
2022-09-18T06:11:24.645Z,20.23
2022-09-18T06:13:52.694Z,23.42
2022-09-18T06:16:28.810Z,21.95
2022-09-18T06:19:00.291Z,21.73
2022-09-18T06:21:27.551Z,20.63
2022-09-18T06:23:54.582Z,19.08
2022-09-18T06:26:33.605Z,19.98
2022-09-18T06:29:01.422Z,17.73
2022-09-18T06:31:34.037Z,23.35
2022-09-18T06:34:07.752Z,24.65
2022-09-18T06:36:34.871Z,18.13
2022-09-18T06:39:18.316Z,23.48
2022-09-18T06:41:49.834Z,18.98
2022-09-18T06:44:21.857Z,17.90
2022-09-18T06:46:57.903Z,16.20
2022-09-18T06:49:35.843Z,16.10
2022-09-18T06:52:04.510Z,17.75
2022-09-18T06:54:33.495Z,16.77
2022-09-18T06:57:02.190Z,14.27
2022-09-18T06:59:31.349Z,17.77
2022-09-18T07:01:58.467Z,11.60
2022-09-18T07:04:44.094Z,10.95
2022-09-18T07:07:11.648Z,17.30
2022-09-18T07:09:38.669Z,12.45
2022-09-18T07:12:22.485Z,12.40
2022-09-18T07:14:53.937Z,11.65
2022-09-18T07:17:26.143Z,14.20
2022-09-18T07:19:55.678Z,15.18
2022-09-18T07:22:32.494Z,17.33
2022-09-18T07:24:59.995Z,11.05
2022-09-18T07:27:29.059Z,12.38
2022-09-18T07:29:57.215Z,11.45
2022-09-18T07:32:24.967Z,11.48
2022-09-18T07:34:52.300Z,10.57
2022-09-18T07:37:26.520Z,12.75
2022-09-18T07:40:12.939Z,8.93
2022-09-18T07:45:50.638Z,9.45
2022-09-18T07:48:17.997Z,9.32
2022-09-18T07:50:48.496Z,22.30
2022-09-18T07:53:17.744Z,10.52
2022-09-18T07:55:48.264Z,9.03
2022-09-18T07:58:15.442Z,8.95
2022-09-18T08:01:02.243Z,9.05
2022-09-18T08:03:31.104Z,6.18
2022-09-18T08:06:09.656Z,10.75
2022-09-18T08:08:38.777Z,9.20
2022-09-18T08:11:35.167Z,12.98
2022-09-18T08:14:29.062Z,10.45
2022-09-18T08:17:15.129Z,7.68
2022-09-18T08:20:07.163Z,8.73
2022-09-18T08:22:42.802Z,7.75
2022-09-18T08:25:11.189Z,13.65
2022-09-18T08:27:42.246Z,10.23
2022-09-18T08:30:12.218Z,9.80
2022-09-18T08:32:40.722Z,12.90
2022-09-18T08:35:11.467Z,9.65
2022-09-18T08:37:41.924Z,10.05
2022-09-18T08:41:15.465Z,12.20
2022-09-18T08:44:01.797Z,8.85
2022-09-18T08:46:43.551Z,10.85
2022-09-18T08:49:22.914Z,12.93
2022-09-18T08:52:12.434Z,11.60
2022-09-18T08:55:00.386Z,11.25
2022-09-18T08:57:49.881Z,15.32
2022-09-18T09:00:52.007Z,10.40
2022-09-18T09:04:23.957Z,12.40
2022-09-18T09:07:03.527Z,12.07
2022-09-18T09:09:46.180Z,10.80
2022-09-18T09:12:43.295Z,11.70
2022-09-18T09:15:16.158Z,15.52
2022-09-18T09:18:12.931Z,9.55
2022-09-18T09:20:54.783Z,16.50
2022-09-18T09:23:42.128Z,8.38
2022-09-18T09:26:33.949Z,10.77
2022-09-18T09:29:22.796Z,11.55
2022-09-18T09:32:37.210Z,17.45
2022-09-18T09:35:45.279Z,9.38
2022-09-18T09:38:41.497Z,13.83
2022-09-18T09:41:34.496Z,9.25
2022-09-18T09:44:38.473Z,10.93
2022-09-18T09:47:15.693Z,12.02
2022-09-18T09:50:23.828Z,8.82
2022-09-18T09:52:57.033Z,12.00
2022-09-18T09:55:30.019Z,11.02
2022-09-18T09:58:14.826Z,13.30
2022-09-18T10:01:21.044Z,11.82
2022-09-18T10:04:01.340Z,11.30
2022-09-18T10:06:49.845Z,14.52
2022-09-18T10:09:52.075Z,14.07
2022-09-18T10:12:54.991Z,11.75
2022-09-18T10:15:44.804Z,14.38
2022-09-18T10:18:22.985Z,14.35
2022-09-18T10:20:54.351Z,13.98
2022-09-18T10:23:33.564Z,14.60
2022-09-18T10:26:01.607Z,12.05
2022-09-18T10:28:31.077Z,14.82
2022-09-18T10:31:10.722Z,15.40
2022-09-18T10:33:53.207Z,13.20
2022-09-18T10:36:37.490Z,12.95
2022-09-18T10:39:31.610Z,11.68
2022-09-18T10:42:25.503Z,12.77
2022-09-18T10:45:03.557Z,13.75
2022-09-18T10:47:36.529Z,14.52
2022-09-18T10:50:19.251Z,19.98
2022-09-18T10:52:49.559Z,18.80
2022-09-18T10:55:26.356Z,18.17
2022-09-18T10:58:14.677Z,15.93
2022-09-18T11:00:56.723Z,19.50
2022-09-18T11:03:47.578Z,17.25
2022-09-18T11:06:26.011Z,18.38
2022-09-18T11:08:59.109Z,17.95
2022-09-18T11:11:34.299Z,16.48
2022-09-18T11:14:25.280Z,17.38
2022-09-18T11:17:02.522Z,23.35
2022-09-18T11:19:41.605Z,19.40
2022-09-18T11:22:41.721Z,18.58
2022-09-18T11:25:24.985Z,22.80
2022-09-18T11:27:58.882Z,21.20
2022-09-18T11:30:34.658Z,20.15
2022-09-18T11:33:15.195Z,24.38
2022-09-18T11:35:55.322Z,22.92
2022-09-18T11:38:24.247Z,22.65
2022-09-18T11:40:57.341Z,25.40
2022-09-18T11:43:35.775Z,28.88
2022-09-18T11:46:13.514Z,23.33
2022-09-18T11:49:19.066Z,26.65
2022-09-18T11:51:55.981Z,24.80
2022-09-18T11:54:55.549Z,22.45
2022-09-18T11:57:36.290Z,21.88
2022-09-18T12:00:12.717Z,23.90
2022-09-18T12:02:58.440Z,22.20
2022-09-18T12:08:35.830Z,28.58
2022-09-18T12:11:21.082Z,18.85
2022-09-18T12:14:13.179Z,20.97
2022-09-18T12:17:01.040Z,15.77
2022-09-18T12:19:44.539Z,22.08
2022-09-18T12:22:26.453Z,23.17
2022-09-18T12:25:04.072Z,23.40
2022-09-18T12:28:36.013Z,19.95
2022-09-18T12:32:04.112Z,22.50
2022-09-18T12:34:47.493Z,42.50
2022-09-18T12:37:24.141Z,25.10
2022-09-18T12:40:23.910Z,19.35
2022-09-18T12:43:29.237Z,24.25
2022-09-18T12:46:18.398Z,24.02
2022-09-18T12:48:49.436Z,23.30
2022-09-18T12:51:39.926Z,27.73
2022-09-18T12:54:38.955Z,26.08
2022-09-18T12:57:12.919Z,22.30
2022-09-18T12:59:54.498Z,25.17
2022-09-18T13:02:48.117Z,25.48
2022-09-18T13:05:34.378Z,28.42
2022-09-18T13:10:47.706Z,26.27
2022-09-18T13:13:24.967Z,21.60
2022-09-18T13:16:03.695Z,24.65
2022-09-18T13:18:59.937Z,23.55
2022-09-18T13:22:08.733Z,23.25
2022-09-18T13:24:39.339Z,21.67
2022-09-18T13:27:17.794Z,24.42
2022-09-18T13:30:00.099Z,25.50
2022-09-18T13:32:37.366Z,20.38
2022-09-18T13:35:14.265Z,22.67
2022-09-18T13:37:43.285Z,18.20
2022-09-18T13:40:35.758Z,20.77
2022-09-18T13:43:25.152Z,18.13
2022-09-18T13:45:53.773Z,17.67
2022-09-18T13:48:28.606Z,18.60
2022-09-18T13:50:55.810Z,16.27
2022-09-18T13:53:34.531Z,17.27
2022-09-18T13:56:05.450Z,15.50
2022-09-18T13:58:35.250Z,18.55
2022-09-18T14:01:08.107Z,22.58
2022-09-18T14:03:52.460Z,19.63
2022-09-18T14:06:36.680Z,15.07
2022-09-18T14:09:55.391Z,12.90
2022-09-18T14:12:32.981Z,15.98
2022-09-18T14:15:26.614Z,19.40
2022-09-18T14:18:17.415Z,15.30
2022-09-18T14:21:24.966Z,13.68
2022-09-18T14:24:25.740Z,17.77
2022-09-18T14:27:03.598Z,15.63
2022-09-18T14:29:36.010Z,15.95
2022-09-18T14:32:10.770Z,14.55
2022-09-18T14:34:45.792Z,14.75
2022-09-18T14:37:30.386Z,16.42
2022-09-18T14:40:02.400Z,12.43
2022-09-18T14:45:15.432Z,15.32
2022-09-18T14:47:48.470Z,13.60
2022-09-18T14:50:40.363Z,12.55
2022-09-18T14:53:27.298Z,13.65
2022-09-18T14:56:07.963Z,11.68
2022-09-18T14:58:39.015Z,13.55
2022-09-18T15:01:08.657Z,12.35
2022-09-18T15:03:42.189Z,15.00
2022-09-18T15:06:23.404Z,13.57
2022-09-18T15:08:54.560Z,14.13
2022-09-18T15:11:25.129Z,11.55
2022-09-18T15:13:54.253Z,13.25
2022-09-18T15:16:27.536Z,12.23
2022-09-18T15:18:55.362Z,13.20
2022-09-18T15:21:33.847Z,12.05
2022-09-18T15:24:02.793Z,11.45
2022-09-18T15:26:33.080Z,10.65
2022-09-18T15:29:02.699Z,8.38
2022-09-18T15:31:32.065Z,9.82
2022-09-18T15:34:10.951Z,10.27
2022-09-18T15:36:41.146Z,11.82
2022-09-18T15:39:45.319Z,11.02
2022-09-18T15:42:21.707Z,10.93
2022-09-18T15:44:55.451Z,10.27
2022-09-18T15:47:28.565Z,8.25
2022-09-18T15:49:57.123Z,10.80
2022-09-18T15:52:48.570Z,9.25
2022-09-18T15:55:22.862Z,9.40
2022-09-18T15:57:53.984Z,7.95
2022-09-18T16:00:28.658Z,6.80
2022-09-18T16:03:05.847Z,14.18
2022-09-18T16:05:37.379Z,8.20
2022-09-18T16:08:17.672Z,7.00
2022-09-18T16:10:52.173Z,8.02
2022-09-18T16:13:21.925Z,8.30
2022-09-18T16:16:09.045Z,7.95
2022-09-18T16:18:52.387Z,8.73
2022-09-18T16:23:52.255Z,11.07
2022-09-18T16:26:19.229Z,10.55
2022-09-18T16:28:49.400Z,10.18
2022-09-18T16:31:20.107Z,11.05
2022-09-18T16:34:24.779Z,11.02
2022-09-18T16:36:52.716Z,12.48
2022-09-18T16:39:22.627Z,10.48
2022-09-18T16:41:51.359Z,17.08
2022-09-18T16:44:19.590Z,14.10
2022-09-18T16:46:51.222Z,11.05
2022-09-18T16:49:22.213Z,12.02
2022-09-18T16:51:49.423Z,11.63
2022-09-18T16:54:16.314Z,12.15
2022-09-18T16:56:54.468Z,12.40
2022-09-18T16:59:26.327Z,12.43
2022-09-18T17:02:03.916Z,16.90
2022-09-18T17:04:32.687Z,13.23
2022-09-18T17:07:00.493Z,14.32
2022-09-18T17:09:27.740Z,18.85
2022-09-18T17:11:55.240Z,18.83
2022-09-18T17:14:32.518Z,20.83
2022-09-18T17:16:59.902Z,20.67
2022-09-18T17:19:26.951Z,19.35
2022-09-18T17:21:54.269Z,18.88
2022-09-18T17:24:27.714Z,20.75
2022-09-18T17:26:55.094Z,19.27
2022-09-18T17:29:22.790Z,16.10
2022-09-18T17:31:50.406Z,20.48
2022-09-18T17:34:19.076Z,19.35
2022-09-18T17:36:53.695Z,20.88
2022-09-18T17:39:20.848Z,21.27
2022-09-18T17:41:50.941Z,21.80
2022-09-18T17:44:18.209Z,25.30
2022-09-18T17:46:54.374Z,19.70
2022-09-18T17:49:28.188Z,20.05
2022-09-18T17:51:56.176Z,23.80
2022-09-18T17:54:28.794Z,25.80
2022-09-18T17:56:56.117Z,33.88
2022-09-18T17:59:29.356Z,30.27
2022-09-18T18:01:56.480Z,32.92
2022-09-18T18:04:25.538Z,38.08
2022-09-18T18:06:55.851Z,41.27
2022-09-18T18:09:23.339Z,50.65
2022-09-18T18:11:51.355Z,55.95
2022-09-18T18:14:26.966Z,60.85
2022-09-18T18:19:23.047Z,66.22
2022-09-18T18:21:56.639Z,67.80
2022-09-18T18:24:24.040Z,85.57
2022-09-18T18:26:51.437Z,86.22
2022-09-18T18:29:19.671Z,68.15
2022-09-18T18:31:49.319Z,90.20
2022-09-18T18:34:21.435Z,102.07
2022-09-18T18:36:50.422Z,94.57
2022-09-18T18:39:20.087Z,114.25
2022-09-18T18:41:47.657Z,117.78
2022-09-18T18:44:14.940Z,86.20
2022-09-18T18:46:43.186Z,92.88
2022-09-18T18:49:14.772Z,143.18
2022-09-18T18:51:47.814Z,133.55
2022-09-18T18:54:21.581Z,115.60
2022-09-18T18:56:49.812Z,141.52
2022-09-18T18:59:20.012Z,159.00
2022-09-18T19:01:47.706Z,96.55
2022-09-18T19:04:19.115Z,90.22
2022-09-18T19:06:46.832Z,106.10
2022-09-18T19:09:20.318Z,103.20
2022-09-18T19:11:50.332Z,83.28
2022-09-18T19:14:20.261Z,86.95
2022-09-18T19:16:49.231Z,96.85
2022-09-18T19:19:21.507Z,79.65
2022-09-18T19:21:49.343Z,65.78
2022-09-18T19:24:21.649Z,78.13
2022-09-18T19:26:49.443Z,58.15
2022-09-18T19:29:19.516Z,58.63
2022-09-18T19:31:47.952Z,53.17
2022-09-18T19:34:19.430Z,40.45
2022-09-18T19:36:50.580Z,43.88
2022-09-18T19:39:25.544Z,52.95
2022-09-18T19:42:12.680Z,56.67
2022-09-18T19:44:56.516Z,54.53
2022-09-18T19:47:32.951Z,54.40
2022-09-18T19:50:04.320Z,78.82
2022-09-18T19:52:32.914Z,78.90
2022-09-18T19:55:02.871Z,79.35
2022-09-18T19:57:33.741Z,81.95
2022-09-18T20:00:06.938Z,68.60
2022-09-18T20:02:56.102Z,61.53
2022-09-18T20:05:43.185Z,70.50
2022-09-18T20:08:11.294Z,56.70
2022-09-18T20:10:43.743Z,62.33
2022-09-18T20:13:14.033Z,81.90
2022-09-18T20:15:53.454Z,69.20
2022-09-18T20:18:33.148Z,79.57
2022-09-18T20:21:09.019Z,103.32
2022-09-18T20:23:42.044Z,84.18
2022-09-18T20:26:18.512Z,103.20
2022-09-18T20:28:46.081Z,98.45
2022-09-18T20:31:17.096Z,91.13
2022-09-18T20:33:44.390Z,84.63
2022-09-18T20:36:11.936Z,42.30
2022-09-18T20:38:41.226Z,54.55
2022-09-18T20:41:13.255Z,38.63
2022-09-18T20:43:44.623Z,50.50
2022-09-18T20:46:15.986Z,38.55
2022-09-18T20:48:46.494Z,30.85
2022-09-18T20:51:15.194Z,32.35
2022-09-18T20:53:45.315Z,32.67
2022-09-18T20:56:14.807Z,39.50
2022-09-18T20:58:42.610Z,26.75
2022-09-18T21:01:11.484Z,28.88
2022-09-18T21:03:41.384Z,19.33
2022-09-18T21:06:23.338Z,22.40
2022-09-18T21:08:53.904Z,25.88
2022-09-18T21:11:29.749Z,24.17
2022-09-18T21:13:59.669Z,30.33
2022-09-18T21:16:28.410Z,31.42
2022-09-18T21:18:57.984Z,26.33
2022-09-18T21:21:26.206Z,23.10
2022-09-18T21:23:59.607Z,22.17
2022-09-18T21:26:33.924Z,24.33
2022-09-18T21:29:04.944Z,26.70
2022-09-18T21:31:35.735Z,19.73
2022-09-18T21:34:04.757Z,21.02
2022-09-18T21:36:38.559Z,25.35
2022-09-18T21:39:09.359Z,16.90
2022-09-18T21:41:38.544Z,16.20
2022-09-18T21:44:10.005Z,20.48
2022-09-18T21:46:38.563Z,20.73
2022-09-18T21:49:08.184Z,15.27
2022-09-18T21:51:36.691Z,18.90
2022-09-18T21:54:05.711Z,16.02
2022-09-18T21:56:33.762Z,14.90
2022-09-18T21:59:01.282Z,14.40
2022-09-18T22:01:33.668Z,23.95
2022-09-18T22:04:02.354Z,13.75
2022-09-18T22:06:41.841Z,12.13
2022-09-18T22:09:12.326Z,26.20
2022-09-18T22:11:40.358Z,13.18
2022-09-18T22:14:11.195Z,13.48
2022-09-18T22:16:39.506Z,16.27
2022-09-18T22:19:08.518Z,11.98
2022-09-18T22:21:38.130Z,12.10
2022-09-18T22:24:09.015Z,11.02
2022-09-18T22:26:42.307Z,13.05
2022-09-18T22:29:15.676Z,11.20
2022-09-18T22:31:44.284Z,12.35
2022-09-18T22:34:11.958Z,11.05
2022-09-18T22:36:39.236Z,11.15
2022-09-18T22:39:06.608Z,10.38
2022-09-18T22:41:36.975Z,11.63
2022-09-18T22:44:05.952Z,10.38
2022-09-18T22:46:33.964Z,10.20
2022-09-18T22:49:01.278Z,10.23
2022-09-18T22:51:28.642Z,11.10
2022-09-18T22:54:04.899Z,8.60
2022-09-18T22:56:32.350Z,10.88
2022-09-18T22:59:02.264Z,11.35
2022-09-18T23:01:37.720Z,9.68
2022-09-18T23:04:05.673Z,11.43
2022-09-18T23:06:33.787Z,9.32
2022-09-18T23:09:01.438Z,10.30
2022-09-18T23:11:31.567Z,8.98
2022-09-18T23:14:01.492Z,8.57
2022-09-18T23:16:30.011Z,9.70
2022-09-18T23:19:00.079Z,7.47
2022-09-18T23:21:29.184Z,9.10
2022-09-18T23:24:09.070Z,8.75
2022-09-18T23:26:40.242Z,8.88
2022-09-18T23:29:11.085Z,6.97
2022-09-18T23:31:46.030Z,6.80
2022-09-18T23:34:16.508Z,7.00
2022-09-18T23:36:46.222Z,6.28
2022-09-18T23:39:22.688Z,5.93
2022-09-18T23:41:50.901Z,7.95
2022-09-18T23:44:20.906Z,5.32
2022-09-18T23:46:48.460Z,5.72
2022-09-18T23:49:17.392Z,6.78
2022-09-18T23:51:49.004Z,6.43
2022-09-18T23:54:22.086Z,6.18
2022-09-18T23:59:22.447Z,9.60
